This demonstration page uses our WeatherBlox Daily Observations layout. Learn more.

Left ArrowRight Arrow

Hourly Observations for April 10, 2021

Temp ( °F °C ) Dew Point ( °F °C ) Humidity (%) Winds ( mph kmh ) Pressure ( in mb ) Visibility ( mi km ) Precip ( " mm )
12:54 am 00:54 Cloudy with Light Rain 46 7.8 43 6.1 89 89 WNW 10 17 29.81 1010 10 16.0934 0.01 0.254
1:54 am 01:54 Cloudy 47 8.3 42 5.6 83 83 NW 10 17 29.8 1009 10 16.0934 0.001 0.001
2:54 am 02:54 Cloudy 47 8.3 40 4.4 77 77 NW 10 17 29.8 1009 10 16.0934 0 0
3:54 am 03:54 Cloudy 46 7.8 40 4.4 79 79 NW 10 17 29.8 1009 10 16.0934 0 0
4:54 am 04:54 Cloudy 46 7.8 40 4.4 79 79 NW 9 15 29.81 1010 10 16.0934 0 0
5:54 am 05:54 Cloudy 47 8.3 39 3.9 74 74 NW 10 17 29.8 1009 10 16.0934 0 0
6:54 am 06:54 Cloudy 46 7.8 39 3.9 77 77 NW 7 11 29.82 1010 10 16.0934 0 0
7:54 am 07:54 Sunny 46 7.8 39 3.9 77 77 NW 7 11 29.84 1010 10 16.0934 0 0
8:54 am 08:54 Sunny 49 9.4 39 3.9 69 69 NNW 17 28 29.83 1010 10 16.0934 0 0
9:54 am 09:54 Sunny 52 11.1 39 3.9 61 61 N 20 31 29.83 1010 10 16.0934 0 0
10:54 am 10:54 Sunny 53 11.7 39 3.9 59 59 N 20 31 29.83 1010 10 16.0934 0 0
11:54 am 11:54 Sunny 54 12.2 39 3.9 57 57 N 17 28 29.82 1010 10 16.0934 0 0
12:54 pm 12:54 Sunny 59 15 34 1.1 39 39 N 17 28 29.81 1010 10 16.0934 0 0
1:54 pm 13:54 Sunny 61 16.1 31 -0.6 32 32 NNW 18 30 29.79 1009 10 16.0934 0 0
2:54 pm 14:54 Sunny 62 16.7 32 0 32 32 NW 17 28 29.76 1008 10 16.0934 0 0
3:54 pm 15:54 Sunny 63 17.2 33 0.6 33 33 NW 14 22 29.74 1007 10 16.0934 0 0
4:54 pm 16:54 Sunny 63 17.2 27 -2.8 26 26 NNW 15 24 29.71 1006 10 16.0934 0 0
5:54 pm 17:54 Sunny 63 17.2 24 -4.4 23 23 NNW 20 31 29.7 1006 10 16.0934 0 0
6:54 pm 18:54 Sunny 61 16.1 22 -5.6 22 22 NNW 16 26 29.69 1005 10 16.0934 0 0
7:54 pm 19:54 Sunny 58 14.4 24 -4.4 27 27 NW 8 13 29.7 1006 10 16.0934 0 0
8:54 pm 20:54 Clear 46 7.8 28 -2.2 50 50 Calm 29.71 1006 10 16.0934 0 0
9:54 pm 21:54 Clear 41 5 27 -2.8 57 57 Calm 29.7 1006 10 16.0934 0 0
10:54 pm 22:54 Clear 38 3.3 28 -2.2 68 68 Calm 29.7 1006 10 16.0934 0 0
11:54 pm 23:54 Clear 35 1.7 29 -1.7 78 78 N 3 6 29.69 1005 10 16.0934 0 0

Powered by AerisWeather